Time;durP1;ratioP1;P1;durP2;ratioP2;P2;SDS_P1;SDS_P2;PMS_P1;PMS_P2;Temp;Humidity;BMP_temperature;BMP_pressure;BME280_temperature;BME280_humidity;BME280_pressure;Samples;Min_cycle;Max_cycle;Signal;HPM_P1;HPM_P2
2023/08/31 00:04:15;;;;;;;3.20;2.90;;;;;;;-145.68;82.48;72928.19;10377108;28;20194;-66
2023/08/31 00:09:16;;;;;;;4.75;3.17;;;;;;;-145.68;82.24;72926.19;10376572;28;20217;-67
2023/08/31 00:14:17;;;;;;;3.63;3.00;;;;;;;-145.68;83.18;72948.16;10376493;28;20200;-66
2023/08/31 00:19:17;;;;;;;3.17;2.88;;;;;;;-145.68;83.56;72962.16;10376382;28;20687;-66
2023/08/31 00:24:18;;;;;;;3.85;3.15;;;;;;;-145.68;85.11;72994.13;10376001;28;20192;-67
2023/08/31 00:29:18;;;;;;;4.32;3.92;;;;;;;-145.68;85.57;72986.13;10376271;28;20217;-66
2023/08/31 00:34:19;;;;;;;4.22;3.70;;;;;;;-145.68;86.85;72994.13;10357987;28;20221;-67
2023/08/31 00:39:20;;;;;;;4.65;3.17;;;;;;;-145.68;88.21;72990.13;10392054;28;20264;-67
2023/08/31 00:44:22;;;;;;;3.90;3.33;;;;;;;-145.68;88.59;72946.16;10457071;28;20191;-66
2023/08/31 00:49:23;;;;;;;4.10;3.53;;;;;;;-145.68;88.92;72952.16;10456845;28;20231;-66
2023/08/31 00:54:23;;;;;;;3.92;3.40;;;;;;;-145.68;90.28;72972.16;10439461;28;20333;-67
2023/08/31 00:59:24;;;;;;;4.18;3.75;;;;;;;-145.68;92.50;73000.13;10456498;28;20636;-66
2023/08/31 01:04:37;;;;;;;5.40;3.83;;;;;;;-145.68;95.20;73014.13;10456787;28;20654;-66
2023/08/31 01:10:07;;;;;;;3.88;3.58;;;;;;;-145.68;96.78;73042.09;10422203;28;20227;-66
2023/08/31 01:15:11;;;;;;;4.10;3.65;;;;;;;-145.68;100.00;73064.09;10438406;28;20361;-67
2023/08/31 01:20:14;;;;;;;4.03;3.10;;;;;;;-145.68;100.00;73068.06;10438185;28;20188;-66
2023/08/31 01:25:14;;;;;;;3.97;3.65;;;;;;;-145.68;100.00;73108.06;10455954;28;20207;-67
2023/08/31 01:30:15;;;;;;;3.85;3.50;;;;;;;-145.68;100.00;73070.06;10437995;28;20265;-66
2023/08/31 01:35:17;;;;;;;6.60;3.72;;;;;;;-145.68;100.00;73086.06;10437503;28;20208;-67
2023/08/31 01:40:25;;;;;;;3.63;3.33;;;;;;;-145.68;100.00;73104.06;10421306;28;20275;-67
2023/08/31 01:45:25;;;;;;;4.03;3.35;;;;;;;-145.68;100.00;73132.03;10476301;22;20207;-69
2023/08/31 01:50:26;;;;;;;3.90;3.50;;;;;;;-145.68;100.00;73122.03;10452015;28;20234;-69
2023/08/31 01:55:26;;;;;;;5.07;3.47;;;;;;;-145.68;100.00;73128.03;10453682;28;20300;-69
2023/08/31 02:00:28;;;;;;;3.58;3.28;;;;;;;-145.68;100.00;73136.03;10436880;28;20184;-69
2023/08/31 02:05:30;;;;;;;4.13;3.58;;;;;;;-145.68;100.00;73120.03;10436308;28;20203;-69
2023/08/31 02:10:30;;;;;;;4.10;3.70;;;;;;;-145.68;100.00;73104.06;10453284;28;20261;-68
2023/08/31 02:15:30;;;;;;;3.65;3.35;;;;;;;-145.68;100.00;73112.03;10435838;28;20290;-69
2023/08/31 02:20:34;;;;;;;12.50;3.80;;;;;;;-145.68;100.00;73158.00;10435285;28;20283;-69
2023/08/31 02:25:34;;;;;;;6.85;4.25;;;;;;;-145.68;100.00;73174.00;10436011;28;20294;-69
2023/08/31 02:30:34;;;;;;;4.68;3.90;;;;;;;-145.68;100.00;73184.00;10453429;28;20260;-69
2023/08/31 02:35:35;;;;;;;4.05;3.75;;;;;;;-145.68;100.00;73194.00;10453303;28;20698;-69
2023/08/31 02:40:37;;;;;;;7.30;4.00;;;;;;;-145.68;100.00;73198.00;10435362;28;20250;-69
2023/08/31 02:45:37;;;;;;;5.25;4.75;;;;;;;-145.68;100.00;73200.00;10434806;28;20762;-69
2023/08/31 02:50:38;;;;;;;7.38;4.55;;;;;;;-145.68;100.00;73217.97;10452684;28;20222;-69
2023/08/31 02:55:38;;;;;;;5.10;4.60;;;;;;;-145.68;100.00;73249.94;10452605;28;20219;-68
2023/08/31 03:00:44;;;;;;;8.65;4.47;;;;;;;-145.68;100.00;73229.97;10434845;28;20191;-68
2023/08/31 03:05:45;;;;;;;4.20;3.83;;;;;;;-145.68;100.00;73245.97;10433997;28;20261;-68
2023/08/31 03:10:45;;;;;;;5.05;4.25;;;;;;;-145.68;100.00;73261.94;10434807;28;20267;-68
2023/08/31 03:15:45;;;;;;;6.30;5.70;;;;;;;-145.68;100.00;73281.94;10452452;28;20581;-68
2023/08/31 03:20:46;;;;;;;5.38;4.70;;;;;;;-145.68;100.00;73301.91;10434032;28;20187;-68
2023/08/31 03:25:47;;;;;;;6.50;4.60;;;;;;;-145.68;100.00;73275.94;10434209;28;20581;-68
2023/08/31 03:30:56;;;;;;;5.35;4.80;;;;;;;-145.68;100.00;73275.94;10452061;28;20191;-68
2023/08/31 03:36:04;;;;;;;5.78;4.78;;;;;;;-145.68;100.00;73267.94;10433790;28;20297;-68
2023/08/31 03:41:06;;;;;;;6.72;4.30;;;;;;;-145.68;100.00;73269.94;10433805;28;20184;-68
2023/08/31 03:46:06;;;;;;;4.05;3.63;;;;;;;-145.68;100.00;73247.97;10433537;28;20239;-68
2023/08/31 03:51:07;;;;;;;3.65;3.35;;;;;;;-145.68;100.00;73257.94;10433903;28;20234;-68
2023/08/31 03:56:07;;;;;;;7.47;3.63;;;;;;;-145.68;100.00;73281.94;10451571;28;20208;-68
2023/08/31 04:01:07;;;;;;;6.72;3.22;;;;;;;-145.68;100.00;73287.94;10433394;28;20283;-68
2023/08/31 04:06:08;;;;;;;4.00;3.53;;;;;;;-145.68;100.00;73289.94;10433674;28;20215;-68
2023/08/31 04:11:08;;;;;;;4.30;2.97;;;;;;;-145.68;100.00;73295.94;10450961;28;20198;-68
2023/08/31 04:16:09;;;;;;;3.50;2.72;;;;;;;-145.68;100.00;73283.94;10433378;28;20215;-68
2023/08/31 04:21:10;;;;;;;5.93;2.58;;;;;;;-145.68;100.00;73291.94;10438408;28;20648;-68
2023/08/31 04:26:14;;;;;;;2.65;2.20;;;;;;;-145.68;100.00;73283.94;10458047;28;20224;-68
2023/08/31 04:31:14;;;;;;;2.88;2.28;;;;;;;-145.68;100.00;73271.94;10458338;28;20658;-68
2023/08/31 04:36:14;;;;;;;3.95;2.25;;;;;;;-145.68;100.00;73289.94;10457658;28;20220;-67
2023/08/31 04:41:15;;;;;;;4.00;2.40;;;;;;;-145.68;100.00;73303.91;10458081;28;20192;-68
2023/08/31 04:46:15;;;;;;;2.85;2.47;;;;;;;-145.68;100.00;73323.91;10457194;28;20254;-68
2023/08/31 04:51:33;;;;;;;3.22;2.60;;;;;;;-145.68;100.00;73317.91;10452441;28;20184;-68
2023/08/31 04:56:34;;;;;;;3.05;2.47;;;;;;;-145.68;100.00;73331.91;10434507;28;20721;-68
2023/08/31 05:01:34;;;;;;;5.07;2.47;;;;;;;-145.68;100.00;73343.88;10434677;28;20195;-68
2023/08/31 05:06:35;;;;;;;3.63;2.17;;;;;;;-145.68;100.00;73343.88;10439920;28;20215;-67
2023/08/31 05:11:35;;;;;;;5.93;2.63;;;;;;;-145.68;100.00;73341.91;10427652;28;20189;-68
2023/08/31 05:16:35;;;;;;;4.05;2.60;;;;;;;-145.68;100.00;73367.88;10418958;28;20219;-68
2023/08/31 05:21:36;;;;;;;3.35;2.50;;;;;;;-145.68;100.00;73339.91;10415059;28;20188;-68
2023/08/31 05:26:36;;;;;;;2.38;2.03;;;;;;;-145.68;100.00;73333.91;10431322;28;20215;-68
2023/08/31 05:31:37;;;;;;;3.67;2.25;;;;;;;-145.68;100.00;73321.91;10416690;28;20246;-68
2023/08/31 05:36:37;;;;;;;5.18;2.20;;;;;;;-145.68;100.00;73317.91;10433052;28;20208;-68
2023/08/31 05:41:40;;;;;;;2.40;1.92;;;;;;;-145.68;100.00;73303.91;10451414;28;20196;-68
2023/08/31 05:46:41;;;;;;;2.20;2.00;;;;;;;-145.68;100.00;73311.91;10455006;28;20235;-68
2023/08/31 05:51:41;;;;;;;2.40;2.05;;;;;;;-145.68;100.00;73307.91;10433548;28;20200;-68
2023/08/31 05:56:41;;;;;;;4.28;2.00;;;;;;;-145.68;100.00;73283.94;10413621;28;20208;-68
2023/08/31 06:01:43;;;;;;;3.13;2.20;;;;;;;-145.68;100.00;73299.91;10413285;28;20197;-68
2023/08/31 06:06:43;;;;;;;5.72;2.38;;;;;;;-145.68;100.00;73277.94;10413199;28;20228;-68
2023/08/31 06:11:44;;;;;;;3.30;2.47;;;;;;;-145.68;99.53;73235.97;10413217;28;20617;-68
2023/08/31 06:16:45;;;;;;;6.05;2.65;;;;;;;-145.68;98.36;73231.97;10412803;28;20628;-68
2023/08/31 06:21:45;;;;;;;3.72;2.90;;;;;;;-145.68;100.00;73203.97;10412779;28;20200;-68
2023/08/31 06:26:45;;;;;;;3.53;3.22;;;;;;;-145.68;100.00;73267.94;10412156;28;20740;-68
2023/08/31 06:31:46;;;;;;;4.50;3.63;;;;;;;-145.68;100.00;73315.91;10412511;28;20600;-68
2023/08/31 06:36:46;;;;;;;6.32;3.65;;;;;;;-145.68;100.00;73333.91;10418626;28;20393;-68
2023/08/31 06:41:47;;;;;;;5.70;3.78;;;;;;;-145.68;100.00;73311.91;10440890;28;20195;-68
2023/08/31 06:46:47;;;;;;;4.45;3.63;;;;;;;-145.68;100.00;73305.91;10449217;28;20232;-68
2023/08/31 06:51:47;;;;;;;5.28;3.40;;;;;;;-145.68;100.00;73323.91;10448984;28;20195;-67
2023/08/31 06:56:48;;;;;;;6.72;3.97;;;;;;;-145.68;100.00;73311.91;10449334;28;20208;-67
2023/08/31 07:01:48;;;;;;;4.97;3.85;;;;;;;-145.68;100.00;73301.91;10447145;28;20188;-67
2023/08/31 07:06:49;;;;;;;7.32;3.65;;;;;;;-145.68;100.00;73291.94;10432337;28;20216;-67
2023/08/31 07:11:49;;;;;;;6.43;3.50;;;;;;;-145.68;100.00;73311.91;10428440;28;20283;-68
2023/08/31 07:16:50;;;;;;;5.93;3.47;;;;;;;-145.68;100.00;73303.91;10427394;28;20690;-68
2023/08/31 07:21:50;;;;;;;5.45;3.67;;;;;;;-145.68;100.00;73291.94;10427970;28;20202;-68
2023/08/31 07:26:51;;;;;;;7.28;4.05;;;;;;;-145.68;97.10;73192.00;10425861;28;20216;-67
2023/08/31 07:31:51;;;;;;;4.47;3.22;;;;;;;-145.68;87.83;73116.03;10430558;28;20191;-68
2023/08/31 07:36:51;;;;;;;5.93;2.50;;;;;;;-145.68;80.75;73026.09;10433019;28;20214;-67
2023/08/31 07:41:54;;;;;;;4.22;2.63;;;;;;;-145.68;79.04;73088.06;10432735;28;20196;-67
2023/08/31 07:46:54;;;;;;;4.93;2.53;;;;;;;-145.68;78.97;73130.03;10448175;23;20271;-72
2023/08/31 07:51:55;;;;;;;4.78;2.30;;;;;;;-145.68;73.23;72992.13;10390876;28;20287;-72
2023/08/31 07:56:55;;;;;;;12.50;2.72;;;;;;;-145.68;68.20;72856.22;10404333;28;20213;-73
2023/08/31 08:01:56;;;;;;;3.60;1.80;;;;;;;-145.68;61.33;72776.28;10373746;28;20545;-71
2023/08/31 08:06:56;;;;;;;7.05;2.08;;;;;;;-145.68;67.36;73108.06;10398546;28;20325;-71
2023/08/31 08:11:56;;;;;;;2.47;2.20;;;;;;;-145.68;66.15;73086.06;10414564;28;20202;-71
2023/08/31 08:16:57;;;;;;;4.43;2.28;;;;;;;-145.68;68.40;73080.06;10414170;28;20211;-72
2023/08/31 08:21:57;;;;;;;4.70;2.00;;;;;;;-145.68;64.42;72986.13;10413948;28;20291;-72
2023/08/31 08:26:58;;;;;;;4.97;2.42;;;;;;;-145.68;62.10;72862.22;10395398;28;20614;-73
2023/08/31 08:31:58;;;;;;;6.80;2.50;;;;;;;-145.68;63.84;72962.16;10373333;28;20216;-72
2023/08/31 08:36:58;;;;;;;6.40;2.38;;;;;;;-145.68;60.82;72978.16;10367503;28;20212;-73
2023/08/31 08:41:59;;;;;;;3.33;1.92;;;;;;;-145.68;56.06;72790.28;10373511;28;20201;-72
2023/08/31 08:47:00;;;;;;;2.35;1.63;;;;;;;-145.68;55.89;72824.25;10373173;28;20225;-73
2023/08/31 08:52:00;;;;;;;3.45;1.60;;;;;;;-145.68;56.90;72804.28;10357026;28;20224;-74
2023/08/31 08:57:03;;;;;;;5.22;2.03;;;;;;;-145.68;56.94;73014.13;10384633;28;20247;-73
2023/08/31 09:02:03;;;;;;;1.77;1.63;;;;;;;-145.68;54.88;72860.22;10393837;28;20208;-73
2023/08/31 09:07:04;;;;;;;4.68;1.20;;;;;;;-145.68;56.33;72922.19;10391223;28;20749;-72
2023/08/31 09:12:08;;;;;;;3.33;1.70;;;;;;;-145.68;55.51;72904.19;10387094;28;20200;-73
2023/08/31 09:17:08;;;;;;;3.97;1.80;;;;;;;-145.68;57.74;72828.25;10380909;28;20213;-71
2023/08/31 09:22:10;;;;;;;6.38;1.80;;;;;;;-145.68;51.32;72700.34;10392999;28;20180;-69
2023/08/31 09:27:11;;;;;;;4.47;1.40;;;;;;;-145.68;50.23;72718.34;10382574;28;20267;-74
2023/08/31 09:32:18;;;;;;;2.85;1.80;;;;;;;-145.68;52.53;72788.28;10390935;28;20743;-71
2023/08/31 09:37:19;;;;;;;3.85;1.83;;;;;;;-145.68;54.27;72870.22;10385104;28;20776;-72
2023/08/31 09:42:20;;;;;;;4.80;1.65;;;;;;;-145.68;52.05;72714.34;10391276;28;20180;-73
2023/08/31 09:47:20;;;;;;;1.70;1.40;;;;;;;-145.68;49.87;72770.31;10389411;28;20233;-72
2023/08/31 09:58:22;;;;;;;2.80;1.52;;;;;;;-145.68;51.36;72754.31;10387286;28;20213;-72
2023/08/31 10:03:23;;;;;;;3.45;1.50;;;;;;;-145.68;50.07;72828.25;10409056;28;20341;-71
2023/08/31 10:08:24;;;;;;;1.92;1.35;;;;;;;-145.68;50.73;72836.25;10394017;28;20212;-71
2023/08/31 10:13:24;;;;;;;4.38;1.80;;;;;;;-145.68;54.24;72990.13;10400483;28;20275;-70
2023/08/31 10:18:24;;;;;;;3.78;1.73;;;;;;;-145.68;54.75;73064.09;10352538;28;20205;-70
2023/08/31 10:23:25;;;;;;;4.18;1.42;;;;;;;-145.68;55.27;73032.09;10370345;28;20193;-70
2023/08/31 10:28:28;;;;;;;3.58;1.90;;;;;;;-145.68;54.41;73032.09;10370083;28;20217;-70
2023/08/31 10:33:31;;;;;;;5.03;1.80;;;;;;;-145.68;55.36;72990.13;10370177;28;20193;-71
2023/08/31 10:38:33;;;;;;;4.95;1.95;;;;;;;-145.68;58.22;73026.09;10369515;28;20263;-70
2023/08/31 10:43:52;;;;;;;5.50;1.92;;;;;;;-145.68;58.77;73080.06;10369786;28;20637;-71
2023/08/31 10:48:57;;;;;;;2.00;1.45;;;;;;;-145.68;56.79;72968.16;10375472;28;20319;-71
2023/08/31 10:54:30;;;;;;;1.70;1.42;;;;;;;-145.68;53.02;72680.38;10396974;28;20196;-72
2023/08/31 10:59:48;;;;;;;3.40;1.70;;;;;;;-145.68;50.89;72782.28;10406536;28;20220;-73
2023/08/31 11:04:57;;;;;;;4.18;1.73;;;;;;;-145.68;50.41;72696.34;10409904;28;20319;-71
2023/08/31 11:10:26;;;;;;;2.55;1.70;;;;;;;-145.68;50.60;72620.41;10392184;28;20224;-73
2023/08/31 11:15:27;;;;;;;3.85;1.63;;;;;;;-145.68;51.06;72686.38;10390907;28;20863;-70
2023/08/31 11:20:31;;;;;;;5.57;1.77;;;;;;;-145.68;49.58;72644.41;10408615;28;20209;-73
2023/08/31 11:25:31;;;;;;;4.05;1.55;;;;;;;-145.68;48.60;72530.50;10409645;28;20196;-73
2023/08/31 11:30:32;;;;;;;4.55;1.60;;;;;;;-145.68;45.89;72536.50;10398202;28;20224;-72
2023/08/31 11:35:37;;;;;;;4.55;1.70;;;;;;;-145.68;57.95;72952.16;10416458;28;20197;-72
2023/08/31 11:40:38;;;;;;;2.65;1.75;;;;;;;-145.68;63.06;73004.13;10399771;28;20213;-72
2023/08/31 11:45:39;;;;;;;1.85;1.52;;;;;;;-145.68;66.30;73176.00;10417809;28;20192;-71
2023/08/31 11:50:40;;;;;;;5.53;1.80;;;;;;;-145.68;69.34;73060.09;10397895;28;20224;-72
2023/08/31 11:55:50;;;;;;;2.92;1.40;;;;;;;-145.68;64.43;72870.22;10399876;28;20188;-72
2023/08/31 12:00:57;;;;;;;4.05;1.30;;;;;;;-145.68;58.06;72672.38;10416954;28;20525;-73
2023/08/31 12:05:58;;;;;;;1.63;1.10;;;;;;;-145.68;48.70;72264.72;10397825;28;20202;-72
2023/08/31 12:11:00;;;;;;;4.75;1.25;;;;;;;-145.68;45.58;72148.84;10374853;28;20229;-70
2023/08/31 12:16:01;;;;;;;2.05;1.13;;;;;;;-145.68;42.99;72088.91;10375031;28;20561;-70
2023/08/31 12:21:03;;;;;;;2.20;0.90;;;;;;;-145.68;42.12;72060.94;10373524;28;20675;-70
2023/08/31 12:26:05;;;;;;;2.10;1.38;;;;;;;-145.68;40.98;71995.00;10360356;28;20189;-71
2023/08/31 12:31:06;;;;;;;3.97;1.55;;;;;;;-145.68;42.27;72262.72;10415158;28;20723;-70
2023/08/31 12:36:06;;;;;;;4.20;1.60;;;;;;;-145.68;45.82;72484.53;10415020;28;20217;-70
2023/08/31 12:41:07;;;;;;;5.45;1.80;;;;;;;-145.68;53.98;72854.25;10414354;28;20195;-70
2023/08/31 12:46:09;;;;;;;7.50;1.60;;;;;;;-145.68;66.30;73192.00;10381912;28;20220;-69
2023/08/31 12:51:09;;;;;;;2.33;1.70;;;;;;;-145.68;78.77;73205.97;10373948;28;20198;-69
2023/08/31 12:56:10;;;;;;;3.35;1.65;;;;;;;-145.68;79.90;73211.97;10402695;28;20224;-69
2023/08/31 13:01:10;;;;;;;2.55;1.52;;;;;;;-145.68;79.77;73243.97;10414203;28;20559;-67
2023/08/31 13:06:11;;;;;;;1.65;1.30;;;;;;;-145.68;80.48;73136.03;10417276;28;20710;-70
2023/08/31 13:11:16;;;;;;;2.40;1.45;;;;;;;-145.68;71.52;73026.09;10413390;28;20196;-69
2023/08/31 13:16:17;;;;;;;2.03;1.30;;;;;;;-145.68;60.05;72862.22;10402015;28;20260;-70
2023/08/31 13:21:17;;;;;;;1.92;1.45;;;;;;;-145.68;58.87;72920.19;10374097;28;20798;-70
2023/08/31 13:26:18;;;;;;;2.40;1.13;;;;;;;-145.68;55.97;72824.25;10377333;28;20216;-71
2023/08/31 13:31:18;;;;;;;1.70;1.00;;;;;;;-145.68;54.64;72686.38;10392402;28;20201;-70
2023/08/31 13:36:19;;;;;;;1.73;1.33;;;;;;;-145.68;55.51;72828.25;10372202;28;20248;-69
2023/08/31 13:41:19;;;;;;;4.95;1.20;;;;;;;-145.68;52.51;72666.38;10372156;28;20273;-69
2023/08/31 13:51:47;;;;;;;8.20;1.40;;;;;;;-145.68;49.05;72526.50;10325173;28;20309;-69
2023/08/31 13:56:50;;;;;;;2.25;1.10;;;;;;;-145.68;51.91;72680.38;10329324;28;20209;-69
2023/08/31 14:01:51;;;;;;;4.10;1.45;;;;;;;-145.68;50.21;72586.44;10313996;28;20187;-69
2023/08/31 14:06:51;;;;;;;1.42;1.20;;;;;;;-145.68;47.79;72368.63;10308367;28;20222;-69
2023/08/31 14:11:52;;;;;;;7.40;1.63;;;;;;;-145.68;47.75;72548.47;10308368;28;20554;-68
2023/08/31 14:16:52;;;;;;;2.50;1.58;;;;;;;-145.68;45.88;72344.66;10310401;28;20285;-69
2023/08/31 14:21:53;;;;;;;1.65;1.42;;;;;;;-145.68;46.75;72664.38;10309852;28;20190;-69
2023/08/31 14:26:54;;;;;;;3.03;1.50;;;;;;;-145.68;46.28;72512.50;10309300;28;21077;-68
2023/08/31 14:31:55;;;;;;;3.35;1.60;;;;;;;-145.68;44.62;72504.53;10308849;28;20183;-68
2023/08/31 14:36:57;;;;;;;2.28;1.40;;;;;;;-145.68;40.46;72120.88;10308054;28;20209;-70
2023/08/31 14:41:57;;;;;;;2.67;1.40;;;;;;;-145.68;41.10;72288.72;10307107;28;20211;-69
2023/08/31 14:46:58;;;;;;;1.23;1.10;;;;;;;-145.68;43.85;72302.69;10312314;28;20304;-68
2023/08/31 14:52:04;;;;;;;1.00;1.00;;;;;;;-145.68;45.86;72410.59;10352622;28;20194;-69
2023/08/31 14:57:06;;;;;;;4.65;1.30;;;;;;;-145.68;47.45;72506.50;10345424;28;20210;-67
2023/08/31 15:02:06;;;;;;;1.40;1.27;;;;;;;-145.68;45.78;72244.75;10347426;28;20193;-68
2023/08/31 15:07:06;;;;;;;2.75;1.40;;;;;;;-145.68;40.77;72004.97;10346626;28;20222;-69
2023/08/31 15:12:07;;;;;;;3.25;1.55;;;;;;;-145.68;36.46;71667.31;10348353;28;20181;-69
2023/08/31 15:17:08;;;;;;;2.35;1.30;;;;;;;-145.68;38.73;71893.09;10346975;28;20206;-69
2023/08/31 15:22:08;;;;;;;2.25;1.27;;;;;;;-145.68;37.21;71949.03;10346784;28;20190;-71
2023/08/31 15:27:09;;;;;;;8.48;1.40;;;;;;;-145.68;41.41;72312.69;10330476;28;20662;-71
2023/08/31 15:32:09;;;;;;;1.55;1.20;;;;;;;-145.68;44.90;72542.50;10347292;28;20194;-70
2023/08/31 15:37:11;;;;;;;2.38;1.45;;;;;;;-145.68;46.54;72540.50;10347438;28;20220;-69
2023/08/31 15:42:13;;;;;;;4.00;1.40;;;;;;;-145.68;45.16;72620.41;10347744;28;20224;-70
2023/08/31 15:47:13;;;;;;;1.90;1.10;;;;;;;-145.68;47.54;72748.31;10346483;28;20759;-69
2023/08/31 15:52:13;;;;;;;2.03;1.25;;;;;;;-145.68;49.65;72950.16;10346226;28;20199;-69
2023/08/31 15:57:14;;;;;;;2.35;1.40;;;;;;;-145.68;51.43;72952.16;10346810;28;20227;-68
2023/08/31 16:02:17;;;;;;;2.10;1.30;;;;;;;-145.68;51.10;72972.16;10345993;28;20200;-68
2023/08/31 16:07:17;;;;;;;2.17;1.30;;;;;;;-145.68;53.39;73024.13;10347319;28;20319;-69
2023/08/31 16:12:18;;;;;;;2.10;1.50;;;;;;;-145.68;53.97;73028.09;10346065;28;20224;-69
2023/08/31 16:17:18;;;;;;;6.18;1.58;;;;;;;-145.68;55.21;73026.09;10353735;28;20220;-69
2023/08/31 16:22:19;;;;;;;3.20;1.40;;;;;;;-145.68;55.21;73016.13;10355184;28;20193;-68
2023/08/31 16:27:19;;;;;;;5.65;1.50;;;;;;;-145.68;56.05;73030.09;10350380;28;20631;-70
2023/08/31 16:32:20;;;;;;;2.20;1.33;;;;;;;-145.68;57.05;73020.13;10350623;28;20728;-70
2023/08/31 16:37:21;;;;;;;3.90;1.50;;;;;;;-145.68;57.25;73048.09;10352773;28;20228;-69
2023/08/31 16:42:21;;;;;;;4.10;1.17;;;;;;;-145.68;55.60;73054.09;10351148;28;21163;-69
2023/08/31 16:47:22;;;;;;;2.90;1.40;;;;;;;-145.68;55.36;73080.06;10355870;28;20225;-69
2023/08/31 16:52:22;;;;;;;2.65;1.20;;;;;;;-145.68;56.02;73118.03;10353813;28;20182;-69
2023/08/31 16:57:22;;;;;;;3.55;1.60;;;;;;;-145.68;55.51;73142.03;10352849;28;20208;-68
2023/08/31 17:02:23;;;;;;;3.47;1.77;;;;;;;-145.68;55.36;73160.00;10353614;28;20278;-69
2023/08/31 17:07:23;;;;;;;1.02;0.85;;;;;;;-145.68;54.96;73180.00;10352491;28;20220;-69
2023/08/31 17:12:24;;;;;;;1.30;0.80;;;;;;;-145.68;54.89;73176.00;10353289;28;20200;-69
2023/08/31 17:17:27;;;;;;;3.33;1.23;;;;;;;-145.68;56.25;73233.97;10350182;28;20205;-69
2023/08/31 17:22:28;;;;;;;2.28;1.02;;;;;;;-145.68;57.18;73257.94;10352380;28;20313;-69
2023/08/31 17:27:29;;;;;;;1.65;1.20;;;;;;;-145.68;58.70;73315.91;10350055;28;20222;-69
2023/08/31 17:32:29;;;;;;;4.20;1.35;;;;;;;-145.68;59.37;73311.91;10351483;28;20560;-69
2023/08/31 17:37:30;;;;;;;1.98;1.13;;;;;;;-145.68;59.70;73323.91;10351454;28;20213;-69
2023/08/31 17:42:30;;;;;;;2.17;1.17;;;;;;;-145.68;61.07;73343.88;10351532;28;20198;-70
2023/08/31 17:47:31;;;;;;;1.67;1.00;;;;;;;-145.68;62.32;73371.88;10349928;28;20228;-70
2023/08/31 17:52:31;;;;;;;1.33;1.00;;;;;;;-145.68;63.08;73387.88;10352265;28;20198;-71
2023/08/31 17:57:32;;;;;;;2.58;1.15;;;;;;;-145.68;64.30;73411.84;10348043;28;20283;-70
2023/08/31 18:02:32;;;;;;;3.75;1.50;;;;;;;-145.68;65.40;73435.84;10350302;28;20242;-70
2023/08/31 18:07:32;;;;;;;1.45;1.35;;;;;;;-145.68;66.99;73457.81;10350731;28;20294;-70
2023/08/31 18:12:33;;;;;;;2.85;1.92;;;;;;;-145.68;67.31;73455.81;10355714;28;20668;-70
2023/08/31 18:17:34;;;;;;;3.75;1.30;;;;;;;-145.68;68.82;73475.81;10363927;28;20213;-70
2023/08/31 18:22:34;;;;;;;6.90;1.40;;;;;;;-145.68;70.12;73495.78;10370420;28;20196;-70
2023/08/31 18:27:35;;;;;;;3.13;1.20;;;;;;;-145.68;71.03;73497.78;10370951;28;20781;-70
2023/08/31 18:32:36;;;;;;;2.95;1.45;;;;;;;-145.68;71.67;73505.78;10372440;28;20199;-70
2023/08/31 18:37:37;;;;;;;2.25;1.42;;;;;;;-145.68;72.60;73515.78;10370092;28;20217;-70
2023/08/31 18:42:39;;;;;;;1.95;1.42;;;;;;;-145.68;72.22;73499.78;10370716;28;20196;-70
2023/08/31 18:47:40;;;;;;;4.13;1.40;;;;;;;-145.68;73.04;73505.78;10370547;28;20272;-69
2023/08/31 18:52:40;;;;;;;2.75;1.70;;;;;;;-145.68;73.47;73511.78;10370326;28;20192;-70
2023/08/31 18:57:44;;;;;;;3.40;1.50;;;;;;;-145.68;73.49;73517.78;10370363;28;20210;-70
2023/08/31 19:02:45;;;;;;;2.33;1.40;;;;;;;-145.68;74.38;73525.78;10370150;28;20275;-69
2023/08/31 19:07:45;;;;;;;5.72;1.80;;;;;;;-145.68;74.75;73519.78;10369897;28;20711;-70
2023/08/31 19:12:48;;;;;;;2.78;1.65;;;;;;;-145.68;75.54;73535.78;10370228;28;20196;-70
2023/08/31 19:17:51;;;;;;;2.38;1.25;;;;;;;-145.68;75.60;73523.78;10369627;28;20299;-69
2023/08/31 19:22:52;;;;;;;2.67;1.85;;;;;;;-145.68;75.85;73525.78;10369880;28;20196;-70
2023/08/31 19:27:52;;;;;;;2.45;1.48;;;;;;;-145.68;76.31;73527.78;10369577;28;20241;-70
2023/08/31 19:32:53;;;;;;;2.67;1.83;;;;;;;-145.68;77.14;73545.78;10369546;28;20189;-70
2023/08/31 19:37:54;;;;;;;4.43;1.65;;;;;;;-145.68;78.48;73555.75;10353711;28;20202;-70
2023/08/31 19:42:54;;;;;;;2.45;1.70;;;;;;;-145.68;78.05;73531.78;10346252;28;20194;-69
2023/08/31 19:47:56;;;;;;;4.30;1.88;;;;;;;-145.68;78.19;73547.75;10368655;22;20237;-66
2023/08/31 19:52:57;;;;;;;4.43;1.70;;;;;;;-145.68;77.88;73543.78;10414984;28;20223;-66
2023/08/31 19:58:00;;;;;;;2.72;1.70;;;;;;;-145.68;77.00;73555.75;10417798;28;20219;-66
2023/08/31 20:03:00;;;;;;;3.85;1.83;;;;;;;-145.68;77.72;73567.75;10417869;28;20192;-66
2023/08/31 20:08:01;;;;;;;4.03;1.65;;;;;;;-145.68;77.86;73563.75;10417179;28;20240;-67
2023/08/31 20:13:01;;;;;;;2.38;1.70;;;;;;;-145.68;78.24;73571.75;10417412;28;20193;-67
2023/08/31 20:18:02;;;;;;;3.38;1.73;;;;;;;-145.68;78.04;73571.75;10416248;28;20266;-67
2023/08/31 20:23:04;;;;;;;2.20;1.67;;;;;;;-145.68;77.95;73571.75;10416982;28;20191;-67
2023/08/31 20:28:05;;;;;;;3.03;1.83;;;;;;;-145.68;77.80;73585.75;10416766;28;20252;-67
2023/08/31 20:33:06;;;;;;;3.30;1.95;;;;;;;-145.68;78.52;73589.75;10417028;28;20196;-67
2023/08/31 20:38:07;;;;;;;2.53;1.88;;;;;;;-145.68;77.66;73591.75;10416934;28;20221;-67
2023/08/31 20:43:08;;;;;;;2.83;1.80;;;;;;;-145.68;78.31;73601.72;10416595;28;20196;-67
2023/08/31 20:48:08;;;;;;;3.80;2.00;;;;;;;-145.68;78.99;73613.72;10416365;28;20630;-67
2023/08/31 20:53:09;;;;;;;3.00;1.95;;;;;;;-145.68;78.83;73603.72;10416169;28;20200;-67
2023/08/31 20:58:10;;;;;;;5.45;1.98;;;;;;;-145.68;79.29;73605.72;10416034;28;20300;-67
2023/08/31 21:03:10;;;;;;;7.00;2.10;;;;;;;-145.68;80.70;73621.72;10415205;28;20197;-67
2023/08/31 21:08:10;;;;;;;2.67;1.75;;;;;;;-145.68;81.11;73613.72;10415405;28;20467;-67
2023/08/31 21:13:11;;;;;;;3.20;1.95;;;;;;;-145.68;81.11;73601.72;10415656;28;20196;-66
2023/08/31 21:18:11;;;;;;;2.92;1.98;;;;;;;-145.68;79.75;73581.75;10415125;28;20212;-66
2023/08/31 21:23:13;;;;;;;3.50;2.00;;;;;;;-145.68;79.64;73603.72;10415312;28;20191;-66
2023/08/31 21:28:14;;;;;;;3.70;1.90;;;;;;;-145.68;84.04;73633.72;10414718;28;20229;-67
2023/08/31 21:33:14;;;;;;;4.30;2.22;;;;;;;-145.68;86.88;73639.72;10414980;28;20552;-67
2023/08/31 21:38:15;;;;;;;5.88;2.30;;;;;;;-145.68;89.80;73647.72;10414610;28;20753;-67
2023/08/31 21:43:16;;;;;;;5.90;2.50;;;;;;;-145.68;95.99;73677.69;10414209;28;20193;-69
2023/08/31 21:48:16;;;;;;;2.72;2.20;;;;;;;-145.68;100.00;73707.69;10414086;28;20291;-66
2023/08/31 21:53:17;;;;;;;3.75;2.15;;;;;;;-145.68;100.00;73731.66;10413769;28;20192;-66
2023/08/31 21:58:17;;;;;;;5.78;2.28;;;;;;;-145.68;100.00;73785.63;10413800;28;20589;-66
2023/08/31 22:03:18;;;;;;;2.60;1.73;;;;;;;-145.68;100.00;73817.63;10413526;28;20203;-66
2023/08/31 22:08:18;;;;;;;4.18;1.55;;;;;;;-145.68;100.00;73811.63;10413158;28;20228;-66
2023/08/31 22:13:18;;;;;;;3.70;1.60;;;;;;;-145.68;100.00;73831.59;10412252;28;20195;-66
2023/08/31 22:18:19;;;;;;;4.03;2.10;;;;;;;-145.68;100.00;73877.59;10412662;28;20713;-66
2023/08/31 22:23:19;;;;;;;2.85;1.90;;;;;;;-145.68;100.00;73903.56;10413087;28;20197;-66
2023/08/31 22:28:20;;;;;;;4.63;2.60;;;;;;;-145.68;100.00;73913.56;10412394;28;20221;-67
2023/08/31 22:33:20;;;;;;;4.87;2.90;;;;;;;-145.68;100.00;73923.56;10412597;28;20190;-66
2023/08/31 22:38:21;;;;;;;6.97;3.10;;;;;;;-145.68;100.00;73927.56;10412442;28;20212;-66
2023/08/31 22:43:21;;;;;;;4.57;2.90;;;;;;;-145.68;100.00;73935.56;10412841;28;20196;-66
2023/08/31 22:48:21;;;;;;;5.90;3.43;;;;;;;-145.68;100.00;73953.53;10411894;28;20228;-65
2023/08/31 22:53:22;;;;;;;4.67;3.13;;;;;;;-145.68;100.00;73965.53;10411703;28;20200;-65
2023/08/31 22:58:22;;;;;;;3.60;3.30;;;;;;;-145.68;100.00;73965.53;10411758;28;20234;-65